Time;durP1;ratioP1;P1;durP2;ratioP2;P2;SDS_P1;SDS_P2;PMS_P1;PMS_P2;Temp;Humidity;BMP_temperature;BMP_pressure;BME280_temperature;BME280_humidity;BME280_pressure;Samples;Min_cycle;Max_cycle;Signal;HPM_P1;HPM_P2
2022/09/11 00:00:34;;;;;;;7.20;6.15;;;;;;;21.37;nan;94969.41;5005010;28;20264;-66
2022/09/11 00:03:01;;;;;;;5.85;5.55;;;;;;;21.32;nan;94977.50;5007128;28;20236;-64
2022/09/11 00:05:29;;;;;;;6.50;5.63;;;;;;;21.34;nan;94967.06;5007481;28;20623;-68
2022/09/11 00:07:56;;;;;;;6.22;5.40;;;;;;;21.39;nan;94964.94;5006040;28;20238;-66
2022/09/11 00:10:24;;;;;;;6.45;5.82;;;;;;;21.46;nan;94960.13;5007825;28;20218;-66
2022/09/11 00:12:50;;;;;;;6.43;5.90;;;;;;;21.62;nan;94958.81;5005599;28;20262;-65
2022/09/11 00:15:18;;;;;;;7.28;6.22;;;;;;;21.71;nan;94965.03;5005890;28;20292;-64
2022/09/11 00:17:45;;;;;;;7.07;6.68;;;;;;;21.61;nan;94959.75;5006325;28;20207;-63
2022/09/11 00:20:12;;;;;;;9.45;6.68;;;;;;;21.67;nan;94989.47;5006313;28;20204;-64
2022/09/11 00:22:39;;;;;;;6.82;6.43;;;;;;;21.62;nan;94965.72;5006569;28;20230;-66
2022/09/11 00:25:06;;;;;;;8.93;6.35;;;;;;;21.45;nan;94964.47;5006227;28;20206;-66
2022/09/11 00:27:32;;;;;;;7.28;6.57;;;;;;;;;;5005488;28;20675;-63
2022/09/11 00:30:00;;;;;;;6.60;5.93;;;;;;;21.35;nan;94974.69;5009673;28;20272;-63
2022/09/11 00:32:28;;;;;;;6.75;6.35;;;;;;;21.35;nan;94973.88;5008905;28;20203;-65
2022/09/11 00:34:55;;;;;;;5.90;5.45;;;;;;;21.44;nan;94973.16;5009132;28;20607;-64
2022/09/11 00:37:21;;;;;;;7.75;6.15;;;;;;;21.42;nan;94980.22;5008984;28;20211;-63
2022/09/11 00:39:49;;;;;;;7.50;5.60;;;;;;;21.56;nan;94977.38;5011160;28;20207;-62
2022/09/11 00:42:16;;;;;;;6.25;5.85;;;;;;;21.56;nan;94968.78;5008242;28;20254;-64
2022/09/11 00:45:01;;;;;;;8.25;5.60;;;;;;;21.45;nan;94974.81;5008089;28;20207;-65
2022/09/11 00:47:31;;;;;;;6.53;5.93;;;;;;;21.46;nan;94968.72;5007518;28;20206;-64
2022/09/11 00:50:06;;;;;;;6.72;6.07;;;;;;;21.37;nan;94977.16;5008271;28;20619;-62
2022/09/11 00:52:37;;;;;;;6.65;6.03;;;;;;;21.33;nan;94962.81;5008451;28;20247;-64
2022/09/11 00:55:07;;;;;;;6.50;6.00;;;;;;;21.38;nan;94983.97;5008146;28;20234;-67
2022/09/11 00:57:39;;;;;;;6.43;5.93;;;;;;;21.39;nan;94976.09;5008558;28;20207;-65
2022/09/11 01:00:08;;;;;;;6.18;5.68;;;;;;;21.42;nan;94975.06;5007713;28;21160;-66
2022/09/11 01:02:38;;;;;;;6.53;5.93;;;;;;;21.36;nan;94981.50;5009803;28;20226;-64
2022/09/11 01:05:06;;;;;;;6.82;6.32;;;;;;;21.38;nan;94974.47;5006471;28;20241;-66
2022/09/11 01:07:35;;;;;;;6.03;5.50;;;;;;;21.40;nan;94966.59;5008892;28;20226;-67
2022/09/11 01:10:02;;;;;;;6.40;5.90;;;;;;;21.31;nan;94973.28;5011058;28;20215;-67
2022/09/11 01:12:35;;;;;;;6.65;6.25;;;;;;;;;;5008693;28;20230;-66
2022/09/11 01:15:05;;;;;;;6.53;5.90;;;;;;;21.26;nan;94969.44;5009899;28;20256;-66
2022/09/11 01:17:43;;;;;;;5.88;5.20;;;;;;;21.17;nan;94970.09;5007227;28;20215;-64
2022/09/11 01:20:34;;;;;;;6.40;5.85;;;;;;;21.19;nan;94973.38;5010951;28;20219;-65
2022/09/11 01:23:24;;;;;;;6.70;6.03;;;;;;;21.17;nan;94970.91;5009309;28;20218;-66
2022/09/11 01:26:06;;;;;;;6.85;6.35;;;;;;;21.16;nan;94960.69;5008141;28;20681;-66
2022/09/11 01:28:38;;;;;;;5.85;5.35;;;;;;;21.25;nan;94972.94;5009395;28;20632;-66
2022/09/11 01:31:11;;;;;;;6.45;5.38;;;;;;;21.34;nan;94973.06;5006806;28;20690;-66
2022/09/11 01:33:43;;;;;;;5.70;5.30;;;;;;;21.43;nan;94971.53;5011163;28;20625;-67
2022/09/11 01:36:17;;;;;;;6.20;5.65;;;;;;;21.39;nan;94965.75;5008389;28;20226;-67
2022/09/11 01:38:46;;;;;;;10.38;6.10;;;;;;;;;;5007744;28;20210;-66
2022/09/11 01:41:19;;;;;;;6.05;5.65;;;;;;;21.47;nan;94962.59;5009650;28;20256;-65
2022/09/11 01:43:51;;;;;;;7.70;6.65;;;;;;;21.47;nan;94978.09;5008670;28;20226;-67
2022/09/11 01:46:24;;;;;;;7.25;5.40;;;;;;;21.50;nan;94987.41;5008659;28;20206;-67
2022/09/11 01:48:59;;;;;;;6.78;6.20;;;;;;;21.41;nan;94952.72;5009593;28;20222;-67
2022/09/11 01:51:30;;;;;;;7.72;5.50;;;;;;;21.13;nan;94953.19;5009530;28;20210;-64
2022/09/11 01:53:59;;;;;;;8.65;5.82;;;;;;;21.21;nan;94950.88;5008796;28;20621;-69
2022/09/11 01:56:32;;;;;;;6.07;5.68;;;;;;;21.20;nan;94962.97;5009205;28;20232;-66
2022/09/11 01:59:04;;;;;;;5.97;5.63;;;;;;;21.13;nan;94943.66;5008383;28;20238;-67
2022/09/11 02:01:33;;;;;;;6.13;5.53;;;;;;;21.03;nan;94940.94;5008273;28;20773;-66
2022/09/11 02:04:06;;;;;;;5.57;5.07;;;;;;;21.10;nan;94979.25;5006752;28;20744;-67
2022/09/11 02:06:40;;;;;;;6.07;5.63;;;;;;;21.27;nan;94938.31;5006982;28;20225;-64
2022/09/11 02:09:11;;;;;;;8.18;5.50;;;;;;;21.43;nan;94934.50;5007449;28;20211;-66
2022/09/11 02:11:40;;;;;;;6.25;5.70;;;;;;;21.43;nan;94939.69;5007432;28;20355;-67
2022/09/11 02:14:16;;;;;;;6.03;5.47;;;;;;;21.38;nan;94938.28;5008039;28;20203;-67
2022/09/11 02:16:48;;;;;;;6.50;5.95;;;;;;;21.28;nan;94937.34;5006266;28;20211;-66
2022/09/11 02:19:18;;;;;;;6.38;5.72;;;;;;;21.22;nan;94932.66;5006265;28;20211;-64
2022/09/11 02:21:47;;;;;;;6.97;5.90;;;;;;;21.11;nan;94935.19;5005736;28;20235;-64
2022/09/11 02:24:14;;;;;;;6.03;5.28;;;;;;;21.15;nan;94928.03;5005978;28;20235;-66
2022/09/11 02:26:46;;;;;;;8.48;7.57;;;;;;;21.14;nan;94940.13;5005620;28;20207;-67
2022/09/11 02:29:15;;;;;;;6.88;6.38;;;;;;;21.04;nan;94924.50;5006560;28;20698;-66
2022/09/11 02:31:43;;;;;;;6.82;6.22;;;;;;;21.08;nan;94925.09;5008726;28;20290;-68
2022/09/11 02:34:10;;;;;;;6.70;5.70;;;;;;;21.23;nan;94933.47;5008329;28;20258;-63
2022/09/11 02:37:15;;;;;;;7.60;5.38;;;;;;;21.28;nan;94952.03;5004930;28;20207;-63
2022/09/11 02:40:01;;;;;;;6.00;5.63;;;;;;;21.26;nan;94938.41;4987545;28;20302;-65
2022/09/11 02:42:44;;;;;;;11.45;6.00;;;;;;;21.16;nan;94927.94;5006181;28;20648;-65
2022/09/11 02:45:21;;;;;;;16.25;14.70;;;;;;;20.88;nan;94934.38;5008922;28;20328;-65
2022/09/11 02:48:00;;;;;;;19.75;17.73;;;;;;;20.75;nan;94933.69;5008321;28;20298;-67
2022/09/11 02:50:34;;;;;;;8.98;8.35;;;;;;;20.64;nan;94931.06;5006067;28;20664;-67
2022/09/11 02:53:06;;;;;;;13.40;12.07;;;;;;;20.58;nan;94931.53;5011424;28;20202;-67
2022/09/11 02:55:50;;;;;;;9.88;8.90;;;;;;;20.32;nan;94921.34;5009920;28;20211;-67
2022/09/11 02:58:25;;;;;;;9.73;8.93;;;;;;;20.19;nan;94923.19;5004317;28;20203;-65
2022/09/11 03:00:57;;;;;;;7.47;6.88;;;;;;;19.97;nan;94925.69;5005528;28;20856;-66
2022/09/11 03:03:24;;;;;;;9.30;8.25;;;;;;;19.76;nan;94922.09;5007186;28;20463;-66
2022/09/11 03:05:51;;;;;;;6.45;5.93;;;;;;;19.77;nan;94934.06;5004365;28;20300;-66
2022/09/11 03:08:17;;;;;;;9.63;7.22;;;;;;;19.66;nan;94933.06;5003959;28;20743;-66
2022/09/11 03:10:45;;;;;;;7.38;6.75;;;;;;;19.71;nan;94932.72;5005646;28;20431;-66
2022/09/11 03:13:13;;;;;;;8.10;7.50;;;;;;;19.78;nan;94941.69;5004058;28;20815;-65
2022/09/11 03:15:42;;;;;;;8.50;7.80;;;;;;;19.82;nan;94934.53;5004497;28;20663;-66
2022/09/11 03:18:13;;;;;;;7.57;7.07;;;;;;;19.85;nan;94934.31;5001641;28;20261;-66
2022/09/11 03:20:40;;;;;;;7.43;6.85;;;;;;;19.78;nan;94940.88;5002204;28;20687;-67
2022/09/11 03:23:07;;;;;;;7.47;6.88;;;;;;;19.46;nan;94941.34;5003631;28;20210;-66
2022/09/11 03:25:33;;;;;;;6.75;6.15;;;;;;;19.31;nan;94937.25;5005439;28;20207;-66
2022/09/11 03:28:00;;;;;;;8.00;7.28;;;;;;;19.34;nan;94973.13;5004780;28;20261;-66
2022/09/11 03:30:27;;;;;;;7.50;6.90;;;;;;;19.07;nan;94955.22;5006112;28;20214;-64
2022/09/11 03:32:54;;;;;;;10.23;7.63;;;;;;;19.02;nan;94947.84;5006004;28;20203;-66
2022/09/11 03:35:22;;;;;;;7.60;6.85;;;;;;;18.91;nan;94946.91;5005430;28;20203;-66
2022/09/11 03:37:49;;;;;;;8.65;8.00;;;;;;;18.93;nan;94948.44;5007842;28;20235;-66
2022/09/11 03:40:16;;;;;;;7.72;7.00;;;;;;;19.19;nan;94969.84;5006226;28;20284;-64
2022/09/11 03:42:42;;;;;;;6.85;6.35;;;;;;;19.21;nan;94968.00;5006257;28;20233;-66
2022/09/11 03:45:10;;;;;;;7.63;7.00;;;;;;;19.28;nan;94969.22;5008376;28;20230;-66
2022/09/11 03:47:39;;;;;;;7.93;7.43;;;;;;;19.26;nan;94967.69;5006780;28;20669;-66
2022/09/11 03:50:07;;;;;;;7.50;6.90;;;;;;;19.26;nan;94980.56;5007032;28;20203;-66
2022/09/11 03:52:35;;;;;;;8.07;7.18;;;;;;;19.10;nan;94970.47;5006554;28;20277;-67
2022/09/11 03:55:02;;;;;;;6.75;6.13;;;;;;;18.81;nan;94967.28;5005690;28;20199;-65
2022/09/11 03:57:28;;;;;;;10.57;7.75;;;;;;;18.82;nan;94963.78;5008239;28;20695;-66
2022/09/11 03:59:55;;;;;;;7.80;7.00;;;;;;;18.86;nan;94962.66;5005251;28;20220;-66
2022/09/11 04:02:23;;;;;;;7.57;6.97;;;;;;;18.63;nan;94961.63;5007061;28;20670;-67
2022/09/11 04:04:50;;;;;;;8.02;6.97;;;;;;;18.70;nan;94967.22;5010466;28;20273;-66
2022/09/11 04:07:17;;;;;;;8.00;6.82;;;;;;;18.76;nan;94977.09;5011622;28;20258;-66
2022/09/11 04:09:45;;;;;;;7.63;6.95;;;;;;;18.72;100.00;75685.34;5010311;28;20252;-67
2022/09/11 04:12:12;;;;;;;9.43;8.25;;;;;;;18.86;nan;94962.66;5009175;28;21343;-70
2022/09/11 04:14:39;;;;;;;7.90;7.20;;;;;;;19.06;nan;94963.88;5009916;28;20284;-65
2022/09/11 04:17:07;;;;;;;7.60;6.90;;;;;;;19.11;nan;94992.72;5009687;28;20322;-67
2022/09/11 04:19:33;;;;;;;10.00;7.07;;;;;;;19.15;nan;94977.88;5011050;28;20233;-66
2022/09/11 04:22:00;;;;;;;7.35;6.68;;;;;;;18.99;nan;94968.66;5009025;28;20203;-66
2022/09/11 04:24:27;;;;;;;8.75;7.95;;;;;;;18.94;nan;94964.72;5010060;28;20315;-65
2022/09/11 04:26:55;;;;;;;8.38;7.28;;;;;;;19.03;100.00;56616.03;5010370;28;20210;-66
2022/09/11 04:29:23;;;;;;;7.70;7.15;;;;;;;;;;5009371;28;20761;-64
2022/09/11 04:31:50;;;;;;;7.10;6.65;;;;;;;19.32;nan;94964.66;5008014;28;20709;-67
2022/09/11 04:34:16;;;;;;;10.40;7.55;;;;;;;19.46;nan;94972.28;5006669;28;20199;-66
2022/09/11 04:36:43;;;;;;;7.70;7.00;;;;;;;-142.91;100.00;56616.03;5010221;28;20668;-66
2022/09/11 04:39:11;;;;;;;7.07;6.57;;;;;;;19.53;nan;94983.03;5011429;28;20206;-66
2022/09/11 04:41:38;;;;;;;7.13;6.55;;;;;;;19.57;nan;94985.25;5008696;28;20207;-67
2022/09/11 04:44:06;;;;;;;7.93;6.32;;;;;;;19.74;nan;94980.69;5007992;28;20269;-64
2022/09/11 04:46:33;;;;;;;9.45;6.68;;;;;;;19.84;nan;94976.50;5009737;28;20690;-65
2022/09/11 04:49:01;;;;;;;7.28;6.50;;;;;;;19.89;nan;94989.91;5011848;28;20295;-64
2022/09/11 04:51:29;;;;;;;8.13;7.50;;;;;;;20.03;nan;94982.00;5010199;28;20203;-65
2022/09/11 04:53:58;;;;;;;9.07;8.27;;;;;;;20.15;nan;94990.63;5009234;28;20719;-64
2022/09/11 04:56:29;;;;;;;7.60;6.97;;;;;;;20.23;nan;94989.13;5010052;28;20248;-66
2022/09/11 04:58:57;;;;;;;8.20;7.47;;;;;;;20.27;nan;95002.66;5009228;28;20214;-65
2022/09/11 05:01:27;;;;;;;8.43;7.13;;;;;;;20.30;nan;95010.97;5010543;28;20199;-67
2022/09/11 05:03:55;;;;;;;8.13;7.35;;;;;;;20.30;nan;94980.00;5007099;28;20320;-66
2022/09/11 05:06:22;;;;;;;8.38;7.65;;;;;;;20.37;nan;94986.38;5009410;28;20644;-66
2022/09/11 05:08:50;;;;;;;8.45;7.90;;;;;;;20.37;nan;94982.97;5007387;28;20550;-67
2022/09/11 05:11:19;;;;;;;10.27;8.35;;;;;;;20.40;nan;94981.94;5009983;28;20622;-67
2022/09/11 05:13:47;;;;;;;10.70;8.55;;;;;;;20.73;nan;94982.03;5007101;28;20195;-67
2022/09/11 05:16:15;;;;;;;7.95;7.30;;;;;;;21.14;nan;94991.00;5008397;28;20365;-66
2022/09/11 05:18:50;;;;;;;8.48;7.95;;;;;;;21.52;nan;94985.50;5009193;28;20203;-67
2022/09/11 05:21:18;;;;;;;8.70;8.10;;;;;;;22.25;nan;94996.06;5008564;28;20211;-66
2022/09/11 05:23:48;;;;;;;8.57;7.75;;;;;;;23.48;nan;94977.19;5009291;28;21670;-66
2022/09/11 05:26:17;;;;;;;8.00;7.30;;;;;;;25.60;nan;94971.06;5008320;28;20207;-65
2022/09/11 05:28:44;;;;;;;9.60;6.93;;;;;;;27.40;nan;94969.88;5009989;28;20276;-66
2022/09/11 05:31:12;;;;;;;7.85;7.15;;;;;;;28.82;nan;94961.06;5010496;28;20207;-65
2022/09/11 05:33:39;;;;;;;7.35;6.63;;;;;;;30.19;nan;94966.06;5008240;28;20208;-66
2022/09/11 05:36:08;;;;;;;8.95;6.47;;;;;;;31.44;nan;94960.22;5008441;28;20213;-66
2022/09/11 05:38:35;;;;;;;7.07;6.57;;;;;;;32.21;nan;94950.06;5008678;28;20602;-66
2022/09/11 05:41:05;;;;;;;6.40;5.65;;;;;;;33.15;nan;94952.53;5008464;28;20204;-67
2022/09/11 05:43:32;;;;;;;6.75;6.10;;;;;;;33.93;nan;94951.34;5008015;28;20226;-71
2022/09/11 05:46:00;;;;;;;6.40;5.97;;;;;;;34.25;nan;94950.63;5009065;28;20316;-67
2022/09/11 05:48:28;;;;;;;6.85;6.25;;;;;;;34.66;nan;94954.97;5008259;28;20207;-66
2022/09/11 05:50:58;;;;;;;7.13;6.50;;;;;;;35.22;nan;94950.09;5009325;28;20746;-66
2022/09/11 05:53:27;;;;;;;7.18;6.47;;;;;;;35.41;nan;94948.47;5007312;28;20223;-66
2022/09/11 05:55:54;;;;;;;8.23;7.03;;;;;;;34.03;nan;94959.72;5008508;28;20194;-68
2022/09/11 05:58:21;;;;;;;7.75;6.88;;;;;;;33.53;nan;94953.78;5008905;28;20230;-67
2022/09/11 06:00:48;;;;;;;7.30;6.85;;;;;;;31.64;nan;94966.56;5008453;28;20206;-67
2022/09/11 06:03:16;;;;;;;7.47;6.97;;;;;;;29.63;nan;94952.22;5006979;28;20230;-68
2022/09/11 06:05:44;;;;;;;9.38;8.68;;;;;;;27.67;nan;94961.06;5006106;28;20813;-67
2022/09/11 06:08:11;;;;;;;8.35;7.70;;;;;;;27.71;nan;94959.75;5008418;28;21856;-66
2022/09/11 06:10:46;;;;;;;8.23;7.57;;;;;;;28.74;nan;94967.09;5008355;28;20195;-67
2022/09/11 06:13:14;;;;;;;12.55;9.45;;;;;;;30.07;nan;94970.88;5007147;28;21404;-66
2022/09/11 06:15:44;;;;;;;8.45;7.80;;;;;;;31.66;nan;94956.72;5006558;28;20656;-66
2022/09/11 06:18:11;;;;;;;8.57;7.88;;;;;;;33.07;nan;94964.84;5008051;28;20292;-65
2022/09/11 06:20:38;;;;;;;8.88;8.10;;;;;;;32.87;nan;94963.06;5008155;28;20280;-66
2022/09/11 06:23:05;;;;;;;8.52;7.93;;;;;;;33.44;nan;94968.13;5007522;28;21660;-65
2022/09/11 06:25:32;;;;;;;8.02;7.35;;;;;;;34.08;nan;94973.13;5006260;28;20211;-67
2022/09/11 06:28:00;;;;;;;9.60;8.80;;;;;;;34.93;nan;94956.63;5008634;28;20214;-68
2022/09/11 06:30:26;;;;;;;8.93;8.10;;;;;;;35.19;nan;94970.84;5007706;28;20298;-67
2022/09/11 06:32:55;;;;;;;9.00;8.40;;;;;;;33.95;nan;94967.78;5007786;28;20232;-67
2022/09/11 06:35:22;;;;;;;7.95;7.45;;;;;;;34.36;nan;94973.84;5006626;28;20282;-66
2022/09/11 06:37:48;;;;;;;9.52;8.55;;;;;;;34.18;nan;94962.97;5006512;28;20205;-68
2022/09/11 06:40:16;;;;;;;8.40;7.70;;;;;;;35.01;nan;94963.53;5007131;28;20210;-66
2022/09/11 06:42:43;;;;;;;8.18;7.68;;;;;;;34.91;nan;94963.94;5007860;28;20207;-67
2022/09/11 06:45:12;;;;;;;8.13;7.53;;;;;;;35.30;nan;94972.91;5004723;28;20721;-69
2022/09/11 06:47:38;;;;;;;8.00;7.57;;;;;;;32.25;nan;94969.75;5007580;28;20260;-67
2022/09/11 06:50:06;;;;;;;9.23;8.63;;;;;;;30.18;nan;94983.59;5007304;28;20401;-67
2022/09/11 06:52:34;;;;;;;10.15;9.30;;;;;;;28.75;nan;94980.97;5007381;28;20203;-68
2022/09/11 06:55:01;;;;;;;9.98;9.18;;;;;;;27.41;nan;94987.19;5005649;28;20202;-67
2022/09/11 06:57:28;;;;;;;9.95;9.27;;;;;;;28.10;nan;94986.13;5007907;28;20297;-68
2022/09/11 06:59:56;;;;;;;9.02;8.10;;;;;;;31.11;nan;94986.84;5008358;28;20206;-66
2022/09/11 07:02:24;;;;;;;10.48;8.00;;;;;;;32.99;nan;94993.13;5008292;28;20286;-67
2022/09/11 07:04:52;;;;;;;8.93;8.43;;;;;;;32.95;nan;94976.06;5006153;28;20316;-68
2022/09/11 07:07:18;;;;;;;8.48;7.93;;;;;;;32.18;nan;94979.34;5006887;28;20319;-67
2022/09/11 07:09:46;;;;;;;13.50;8.73;;;;;;;31.16;nan;94982.88;5008553;28;20227;-69
2022/09/11 07:12:13;;;;;;;13.60;12.23;;;;;;;30.08;nan;94977.72;5007803;28;20242;-69
2022/09/11 07:14:40;;;;;;;9.73;8.80;;;;;;;29.67;nan;94972.69;5006955;28;20195;-68
2022/09/11 07:17:07;;;;;;;12.15;11.23;;;;;;;30.99;nan;94988.22;5007844;28;20580;-69
2022/09/11 07:19:35;;;;;;;9.68;8.77;;;;;;;32.13;nan;94965.97;5006410;28;20248;-66
2022/09/11 07:22:01;;;;;;;13.50;12.32;;;;;;;33.85;nan;94972.63;5006724;28;20310;-66
2022/09/11 07:24:28;;;;;;;9.35;8.75;;;;;;;-142.91;100.00;56616.03;5007562;28;20262;-66
2022/09/11 07:26:55;;;;;;;7.82;7.25;;;;;;;-142.91;100.00;56616.03;5006097;28;20199;-67
2022/09/11 07:29:22;;;;;;;14.02;12.70;;;;;;;-142.91;100.00;56616.03;5008428;28;20221;-67
2022/09/11 07:31:49;;;;;;;11.80;10.70;;;;;;;-142.91;100.00;56616.03;5008028;28;20218;-67
2022/09/11 07:34:15;;;;;;;7.90;7.38;;;;;;;-142.91;100.00;56616.03;5007053;28;20203;-68
2022/09/11 07:36:44;;;;;;;11.38;10.40;;;;;;;-142.91;100.00;56616.03;5006578;28;20626;-68
2022/09/11 07:39:11;;;;;;;9.27;8.68;;;;;;;-142.91;100.00;56616.03;5012087;28;21912;-68
2022/09/11 07:41:38;;;;;;;10.73;9.90;;;;;;;-142.91;100.00;56616.03;5011271;28;20638;-67
2022/09/11 07:44:06;;;;;;;7.53;7.05;;;;;;;-142.91;100.00;56616.03;5009697;28;20265;-67
2022/09/11 07:46:33;;;;;;;7.03;6.47;;;;;;;-142.91;100.00;56616.03;5010225;28;20700;-68
2022/09/11 07:49:00;;;;;;;7.93;7.43;;;;;;;-142.91;100.00;56616.03;5012543;28;20256;-67
2022/09/11 07:51:28;;;;;;;10.52;9.27;;;;;;;-142.91;100.00;56616.03;5011327;28;20233;-67
2022/09/11 07:53:58;;;;;;;7.63;7.13;;;;;;;-142.91;100.00;56616.03;5009995;28;20346;-67
2022/09/11 07:56:26;;;;;;;9.00;8.25;;;;;;;-142.91;100.00;56616.03;5010962;28;20282;-66
2022/09/11 07:58:55;;;;;;;7.63;7.13;;;;;;;-142.91;100.00;56616.03;5010359;28;20211;-67
2022/09/11 08:01:23;;;;;;;8.70;8.05;;;;;;;-142.91;100.00;56616.03;5010308;28;20238;-68
2022/09/11 08:03:55;;;;;;;7.53;6.97;;;;;;;-142.91;100.00;56616.03;5011314;28;20207;-67
2022/09/11 08:06:23;;;;;;;8.10;7.07;;;;;;;-142.91;100.00;56616.03;5008509;28;20223;-66
2022/09/11 08:08:52;;;;;;;8.45;7.90;;;;;;;-142.91;100.00;56616.03;5008011;28;20199;-67
2022/09/11 08:11:20;;;;;;;8.70;7.85;;;;;;;-142.91;100.00;56616.03;5013355;28;20558;-65
2022/09/11 08:13:49;;;;;;;8.57;7.80;;;;;;;-142.91;100.00;56616.03;5011307;28;20771;-66
2022/09/11 08:16:16;;;;;;;9.77;7.43;;;;;;;-142.91;100.00;56616.03;5008778;28;20202;-66
2022/09/11 08:18:44;;;;;;;8.50;7.90;;;;;;;-142.91;100.00;56616.03;5009684;28;20530;-67
2022/09/11 08:21:11;;;;;;;8.98;8.15;;;;;;;-142.91;100.00;56616.03;5009045;28;20202;-67
2022/09/11 08:23:40;;;;;;;8.20;7.70;;;;;;;-142.91;100.00;56616.03;5009877;28;20211;-70
2022/09/11 08:26:09;;;;;;;7.93;7.43;;;;;;;-142.91;100.00;56616.03;5009529;28;20284;-67
2022/09/11 08:28:39;;;;;;;8.13;7.45;;;;;;;-142.91;100.00;56616.03;5011049;28;20681;-67
2022/09/11 08:31:06;;;;;;;15.45;13.88;;;;;;;-142.91;100.00;56616.03;5009381;28;20691;-66
2022/09/11 08:33:33;;;;;;;13.45;12.30;;;;;;;-142.91;100.00;56616.03;5010245;28;20723;-67
2022/09/11 08:36:02;;;;;;;11.00;10.00;;;;;;;-142.91;100.00;56616.03;5009609;28;20191;-67
2022/09/11 08:38:29;;;;;;;11.38;10.38;;;;;;;-142.91;100.00;56616.03;5008993;28;20213;-66
2022/09/11 08:40:57;;;;;;;9.98;9.23;;;;;;;-142.91;100.00;56616.03;5010068;28;20269;-67
2022/09/11 08:43:29;;;;;;;15.00;13.73;;;;;;;-142.91;100.00;56616.03;5008522;28;20567;-68
2022/09/11 08:46:03;;;;;;;8.80;8.25;;;;;;;-142.91;100.00;56616.03;5007765;28;20436;-68
2022/09/11 08:48:35;;;;;;;19.67;17.52;;;;;;;-142.91;100.00;56616.03;5006874;28;20716;-68
2022/09/11 08:51:03;;;;;;;12.20;11.20;;;;;;;-142.91;100.00;56616.03;5009887;28;20313;-69
2022/09/11 08:53:32;;;;;;;8.73;7.85;;;;;;;-142.91;100.00;56616.03;5008561;28;20661;-67
2022/09/11 08:56:03;;;;;;;8.75;8.05;;;;;;;-142.91;100.00;56616.03;5006817;28;20199;-67
2022/09/11 08:58:37;;;;;;;10.50;9.68;;;;;;;-142.91;100.00;56616.03;5009155;28;20200;-68
2022/09/11 09:01:25;;;;;;;16.27;14.63;;;;;;;-142.91;100.00;56616.03;5008890;28;20264;-68
2022/09/11 09:04:15;;;;;;;9.63;8.68;;;;;;;-142.91;100.00;56616.03;5011067;28;20787;-68
2022/09/11 09:06:54;;;;;;;7.95;7.55;;;;;;;-142.91;100.00;56616.03;5006543;28;21642;-67
2022/09/11 09:09:31;;;;;;;8.75;8.25;;;;;;;-142.91;100.00;56616.03;5010524;28;20999;-66
2022/09/11 09:12:08;;;;;;;11.25;10.35;;;;;;;-142.91;100.00;56616.03;5007547;28;20241;-69
2022/09/11 09:14:58;;;;;;;30.05;23.70;;;;;;;-142.91;100.00;56616.03;5008305;28;20679;-67
2022/09/11 09:17:33;;;;;;;17.52;15.20;;;;;;;-142.91;100.00;56616.03;5006796;28;20195;-67
2022/09/11 09:20:05;;;;;;;13.68;12.00;;;;;;;-142.91;100.00;56616.03;5003529;28;20215;-67
2022/09/11 09:22:39;;;;;;;21.10;15.32;;;;;;;-142.91;100.00;56616.03;5007944;28;20272;-67
2022/09/11 09:25:11;;;;;;;12.10;11.10;;;;;;;-142.91;100.00;56616.03;5006434;28;21597;-67
2022/09/11 09:27:44;;;;;;;11.70;10.48;;;;;;;-142.91;100.00;56616.03;5009208;28;20370;-67
2022/09/11 09:30:16;;;;;;;9.18;8.50;;;;;;;-142.91;100.00;56616.03;5008965;28;20262;-67
2022/09/11 09:32:52;;;;;;;8.48;7.65;;;;;;;-142.91;100.00;56616.03;5008437;28;20257;-66
2022/09/11 09:35:23;;;;;;;9.27;8.68;;;;;;;-142.91;100.00;56616.03;5008716;28;20198;-67
2022/09/11 09:37:50;;;;;;;9.38;8.73;;;;;;;-142.91;100.00;56616.03;5009320;28;20218;-67
2022/09/11 09:40:18;;;;;;;8.18;7.50;;;;;;;-142.91;100.00;56616.03;5008953;28;20234;-66
2022/09/11 09:43:25;;;;;;;8.65;7.95;;;;;;;-142.91;100.00;56616.03;5009352;28;20730;-67
2022/09/11 09:46:03;;;;;;;7.82;7.25;;;;;;;-142.91;100.00;56616.03;5007355;28;21945;-65
2022/09/11 09:48:36;;;;;;;7.57;7.13;;;;;;;-142.91;100.00;56616.03;5009352;28;20575;-66
2022/09/11 09:51:02;;;;;;;7.75;7.07;;;;;;;-142.91;100.00;56616.03;5008405;28;20218;-67
2022/09/11 09:53:35;;;;;;;8.25;7.80;;;;;;;-142.91;100.00;56616.03;5009081;28;20218;-65
2022/09/11 09:56:04;;;;;;;8.80;8.23;;;;;;;-142.91;100.00;56616.03;5008676;28;20203;-66
2022/09/11 09:58:34;;;;;;;7.13;6.72;;;;;;;-142.91;100.00;56616.03;5008890;28;20647;-66
2022/09/11 10:01:01;;;;;;;9.10;8.35;;;;;;;-142.91;100.00;56616.03;5007247;28;22069;-66
2022/09/11 10:03:28;;;;;;;7.45;7.05;;;;;;;-142.91;100.00;56616.03;5007129;28;20213;-65
2022/09/11 10:05:59;;;;;;;8.23;7.65;;;;;;;-142.91;100.00;56616.03;5006090;28;20230;-65
2022/09/11 10:08:36;;;;;;;6.85;6.25;;;;;;;-142.91;100.00;56616.03;5007685;28;20730;-67
2022/09/11 10:11:05;;;;;;;7.32;6.75;;;;;;;-142.91;100.00;56616.03;5008526;28;20672;-68
2022/09/11 10:13:33;;;;;;;7.15;6.72;;;;;;;-142.91;100.00;56616.03;5007470;28;20207;-67
2022/09/11 10:16:02;;;;;;;6.93;6.60;;;;;;;-142.91;100.00;56616.03;5007240;28;20211;-67
2022/09/11 10:18:38;;;;;;;12.07;11.07;;;;;;;-142.91;100.00;56616.03;5010813;28;20301;-67
2022/09/11 10:21:28;;;;;;;12.73;11.50;;;;;;;-142.91;100.00;56616.03;5008345;28;20636;-66
2022/09/11 10:23:56;;;;;;;13.35;12.00;;;;;;;-142.91;100.00;56616.03;5009269;28;20203;-66
2022/09/11 10:26:28;;;;;;;8.65;7.80;;;;;;;-142.91;100.00;56616.03;5007746;28;20226;-65
2022/09/11 10:29:01;;;;;;;7.13;6.80;;;;;;;-142.91;100.00;56616.03;5006886;28;20273;-65
2022/09/11 10:31:28;;;;;;;7.78;7.18;;;;;;;-142.91;100.00;56616.03;5007291;28;20218;-67
2022/09/11 10:33:58;;;;;;;8.10;7.50;;;;;;;-142.91;100.00;56616.03;5006631;28;20639;-68
2022/09/11 10:36:29;;;;;;;8.15;7.45;;;;;;;-142.91;100.00;56616.03;5008114;28;20657;-67
2022/09/11 10:38:58;;;;;;;7.43;6.95;;;;;;;-142.91;100.00;56616.03;5007940;28;20264;-67
2022/09/11 10:41:26;;;;;;;7.90;6.95;;;;;;;-142.91;100.00;56616.03;5008813;28;20211;-67
2022/09/11 10:43:59;;;;;;;7.03;6.63;;;;;;;-142.91;100.00;56616.03;5005406;28;20214;-67
2022/09/11 10:46:34;;;;;;;6.15;5.75;;;;;;;-142.91;100.00;56616.03;5004470;28;20230;-65
2022/09/11 10:49:15;;;;;;;6.72;6.28;;;;;;;-142.91;100.00;56616.03;5005518;28;20235;-64
2022/09/11 10:52:00;;;;;;;6.65;6.15;;;;;;;-142.91;100.00;56616.03;5006006;28;20694;-66
2022/09/11 10:54:46;;;;;;;6.47;6.15;;;;;;;-142.91;100.00;56616.03;5004977;28;20207;-64
2022/09/11 10:57:21;;;;;;;13.85;12.43;;;;;;;-142.91;100.00;56616.03;5005629;28;20575;-66
2022/09/11 10:59:59;;;;;;;8.70;8.00;;;;;;;-142.91;100.00;56616.03;5005404;28;21824;-67
2022/09/11 11:02:30;;;;;;;7.35;6.68;;;;;;;-142.91;100.00;56616.03;5008067;28;20213;-67
2022/09/11 11:05:00;;;;;;;6.38;5.88;;;;;;;-142.91;100.00;56616.03;5005598;28;20681;-65
2022/09/11 11:07:44;;;;;;;7.72;7.22;;;;;;;-142.91;100.00;56616.03;5007178;28;20237;-65
2022/09/11 11:10:23;;;;;;;6.68;6.28;;;;;;;-142.91;100.00;56616.03;5007509;28;20219;-65
2022/09/11 11:13:03;;;;;;;6.63;6.07;;;;;;;-142.91;100.00;56616.03;5005213;28;20238;-65
2022/09/11 11:15:40;;;;;;;6.07;5.68;;;;;;;-142.91;100.00;56616.03;5006685;28;20348;-65
2022/09/11 11:18:34;;;;;;;6.15;5.68;;;;;;;-142.91;100.00;56616.03;5007161;28;20210;-64
2022/09/11 11:21:13;;;;;;;6.57;6.07;;;;;;;-142.91;100.00;56616.03;5007160;28;20247;-64
2022/09/11 11:24:07;;;;;;;6.38;5.82;;;;;;;-142.91;100.00;56616.03;5007669;28;20199;-63
2022/09/11 11:26:52;;;;;;;6.70;6.20;;;;;;;-142.91;100.00;56616.03;5006685;28;20654;-65
2022/09/11 11:29:38;;;;;;;6.10;5.72;;;;;;;-142.91;100.00;56616.03;5004455;28;20230;-64
2022/09/11 11:32:34;;;;;;;6.80;6.18;;;;;;;-142.91;100.00;56616.03;5005559;28;20738;-65
2022/09/11 11:35:21;;;;;;;6.00;5.53;;;;;;;-142.91;100.00;56616.03;5005175;28;20754;-64
2022/09/11 11:37:49;;;;;;;5.97;5.38;;;;;;;-142.91;100.00;56616.03;5006646;28;21562;-64
2022/09/11 11:40:26;;;;;;;6.13;5.68;;;;;;;-142.91;100.00;56616.03;5009293;28;20213;-63
2022/09/11 11:43:00;;;;;;;6.28;5.97;;;;;;;-142.91;100.00;56616.03;5005843;28;20202;-64
2022/09/11 11:45:32;;;;;;;6.07;5.78;;;;;;;-142.91;100.00;56616.03;4997664;28;20219;-66
2022/09/11 11:48:01;;;;;;;6.70;6.13;;;;;;;-142.91;100.00;56616.03;5006672;28;20203;-65
2022/09/11 11:50:34;;;;;;;5.82;5.30;;;;;;;-142.91;100.00;56616.03;5003665;28;20207;-65